Taos, NM (87571)

12:37 PM MST on December 04, 2016 (GMT -0700)
Valverde | | Change Station

Elev 6923 ft 36.41 °N, 105.58 °W | Updated 14 minutes ago

Clear
Clear
32.8 °F
Feels Like 33 °F
N
1.0
Wind Variable Wind from WSW
Gusts 7.0 mph

Today
High -- | Low -- °F
--% Chance of Precip.
Yesterday
High -- | Low -- °F
Precip. -- in
Pressure 30.12 in
Visibility 10.0 miles
Clouds Clear
Windchill 33 °F
Dew Point 17 °F
Humidity 52%
Rainfall 0.00 in
Snow Depth Not available.
6:58 AM 4:46 PM
Waxing Crescent, 25% visible
METAR KSKX 041935Z AUTO 00000KT 10SM CLR 01/M14 A3012 RMK AO1
Pressure 30.12 in
Visibility 10.0 miles
Clouds Clear
Windchill 33 °F
Dew Point 17 °F
Humidity 52%
Rainfall 0.00 in
Snow Depth Not available.
6:58 AM 4:46 PM
Waxing Crescent, 25% visible
METAR KSKX 041935Z AUTO 00000KT 10SM CLR 01/M14 A3012 RMK AO1

10-Day Weather Forecast

Almanac

Astronomy

Dec. 04, 2016 Rise Set
Actual Time
Civil Twilight
Nautical Twilight
Astronomical Twilight
Moon
Length of Visible Light
Length of Day
Tomorrow will be .
, % of the Moon is Illuminated

Today's Extremes

State Highs State Lows

Community

WunderPhotos

Upload Photos

1,955,650 photos uploaded!

WunderBlog® & News

Nearby

Air Quality

  Air Quality AQ Index Pollutant
Not available.

Snow Depth

Station Depth Elevation

Earthquake Activity

City Distance Mag. Time & Date
Minimum magnitude displayed is 2.5.

Coastal Water Temperatures

Place Temperature

Stations

Nearby Weather Stations

Station Location Temp. Windchill Dew Point Humidity Wind Precip. Elev Updated Type
                   

Watches & Warnings

There are currently no watches in effect.